sensor_id;sensor_type;location;lat;lon;timestamp;temperature;humidity
73643;DHT22;61938;48.652;9.292;2023-03-11T00:02:15;2.40;99.90
73643;DHT22;61938;48.652;9.292;2023-03-11T00:04:41;2.30;99.90
73643;DHT22;61938;48.652;9.292;2023-03-11T00:07:08;2.20;99.90
73643;DHT22;61938;48.652;9.292;2023-03-11T00:09:34;2.20;99.90
73643;DHT22;61938;48.652;9.292;2023-03-11T00:12:01;2.20;99.90
73643;DHT22;61938;48.652;9.292;2023-03-11T00:14:26;2.10;99.90
73643;DHT22;61938;48.652;9.292;2023-03-11T00:16:52;2.10;99.90
73643;DHT22;61938;48.652;9.292;2023-03-11T00:19:17;2.00;99.90
73643;DHT22;61938;48.652;9.292;2023-03-11T00:21:43;2.00;99.90
73643;DHT22;61938;48.652;9.292;2023-03-11T00:24:08;1.90;99.90
73643;DHT22;61938;48.652;9.292;2023-03-11T00:26:34;1.90;99.90
73643;DHT22;61938;48.652;9.292;2023-03-11T00:28:59;1.90;99.90
73643;DHT22;61938;48.652;9.292;2023-03-11T00:31:25;1.90;99.90
73643;DHT22;61938;48.652;9.292;2023-03-11T00:33:54;1.90;99.90
73643;DHT22;61938;48.652;9.292;2023-03-11T00:36:29;1.90;99.90
73643;DHT22;61938;48.652;9.292;2023-03-11T00:38:59;1.90;99.90
73643;DHT22;61938;48.652;9.292;2023-03-11T00:41:27;1.80;99.90
73643;DHT22;61938;48.652;9.292;2023-03-11T00:43:52;1.80;99.90
73643;DHT22;61938;48.652;9.292;2023-03-11T00:46:18;1.80;99.90
73643;DHT22;61938;48.652;9.292;2023-03-11T00:48:43;1.80;99.90
73643;DHT22;61938;48.652;9.292;2023-03-11T00:51:13;1.90;99.90
73643;DHT22;61938;48.652;9.292;2023-03-11T00:53:40;1.90;99.90
73643;DHT22;61938;48.652;9.292;2023-03-11T00:56:11;1.90;99.90
73643;DHT22;61938;48.652;9.292;2023-03-11T00:58:37;1.90;99.90
73643;DHT22;61938;48.652;9.292;2023-03-11T01:01:08;2.00;99.90
73643;DHT22;61938;48.652;9.292;2023-03-11T01:03:34;2.00;99.90
73643;DHT22;61938;48.652;9.292;2023-03-11T01:05:59;2.00;99.90
73643;DHT22;61938;48.652;9.292;2023-03-11T01:08:25;2.00;99.90
73643;DHT22;61938;48.652;9.292;2023-03-11T01:10:52;2.00;99.90
73643;DHT22;61938;48.652;9.292;2023-03-11T01:13:18;2.10;99.90
73643;DHT22;61938;48.652;9.292;2023-03-11T01:15:43;2.10;99.90
73643;DHT22;61938;48.652;9.292;2023-03-11T01:18:09;2.10;99.90
73643;DHT22;61938;48.652;9.292;2023-03-11T01:20:36;2.10;99.90
73643;DHT22;61938;48.652;9.292;2023-03-11T01:23:02;2.20;99.90
73643;DHT22;61938;48.652;9.292;2023-03-11T01:25:28;2.10;99.90
73643;DHT22;61938;48.652;9.292;2023-03-11T01:27:53;2.20;99.90
73643;DHT22;61938;48.652;9.292;2023-03-11T01:30:22;2.20;99.90
73643;DHT22;61938;48.652;9.292;2023-03-11T01:32:49;2.20;99.90
73643;DHT22;61938;48.652;9.292;2023-03-11T01:35:16;2.20;99.90
73643;DHT22;61938;48.652;9.292;2023-03-11T01:37:43;2.20;99.90
73643;DHT22;61938;48.652;9.292;2023-03-11T01:40:33;2.20;99.90
73643;DHT22;61938;48.652;9.292;2023-03-11T01:42:59;2.20;99.90
73643;DHT22;61938;48.652;9.292;2023-03-11T01:47:53;2.20;99.90
73643;DHT22;61938;48.652;9.292;2023-03-11T01:50:19;2.10;99.90
73643;DHT22;61938;48.652;9.292;2023-03-11T01:52:45;2.20;99.90
73643;DHT22;61938;48.652;9.292;2023-03-11T01:55:12;2.10;99.90
73643;DHT22;61938;48.652;9.292;2023-03-11T01:57:41;2.10;99.90
73643;DHT22;61938;48.652;9.292;2023-03-11T02:00:10;2.00;99.90
73643;DHT22;61938;48.652;9.292;2023-03-11T02:02:42;2.00;99.90
73643;DHT22;61938;48.652;9.292;2023-03-11T02:05:10;1.90;99.90
73643;DHT22;61938;48.652;9.292;2023-03-11T02:07:38;1.90;99.90
73643;DHT22;61938;48.652;9.292;2023-03-11T02:10:04;1.90;99.90
73643;DHT22;61938;48.652;9.292;2023-03-11T02:12:33;1.80;99.90
73643;DHT22;61938;48.652;9.292;2023-03-11T02:15:00;1.80;99.90
73643;DHT22;61938;48.652;9.292;2023-03-11T02:17:26;1.80;99.90
73643;DHT22;61938;48.652;9.292;2023-03-11T02:20:04;1.80;99.90
73643;DHT22;61938;48.652;9.292;2023-03-11T02:22:37;1.70;99.90
73643;DHT22;61938;48.652;9.292;2023-03-11T02:25:20;1.70;99.90
73643;DHT22;61938;48.652;9.292;2023-03-11T02:27:49;1.70;99.90
73643;DHT22;61938;48.652;9.292;2023-03-11T02:30:16;1.70;99.90
73643;DHT22;61938;48.652;9.292;2023-03-11T02:32:43;1.70;99.90
73643;DHT22;61938;48.652;9.292;2023-03-11T02:35:13;1.70;99.90
73643;DHT22;61938;48.652;9.292;2023-03-11T02:37:46;1.70;99.90
73643;DHT22;61938;48.652;9.292;2023-03-11T02:42:47;1.70;99.90
73643;DHT22;61938;48.652;9.292;2023-03-11T02:45:16;1.70;99.90
73643;DHT22;61938;48.652;9.292;2023-03-11T02:47:42;1.60;99.90
73643;DHT22;61938;48.652;9.292;2023-03-11T02:50:11;1.60;99.90
73643;DHT22;61938;48.652;9.292;2023-03-11T02:52:36;1.50;99.90
73643;DHT22;61938;48.652;9.292;2023-03-11T02:55:03;1.50;99.90
73643;DHT22;61938;48.652;9.292;2023-03-11T02:57:28;1.40;99.90
73643;DHT22;61938;48.652;9.292;2023-03-11T02:59:54;1.30;99.90
73643;DHT22;61938;48.652;9.292;2023-03-11T03:02:19;1.60;99.90
73643;DHT22;61938;48.652;9.292;2023-03-11T03:04:45;1.20;99.90
73643;DHT22;61938;48.652;9.292;2023-03-11T03:07:10;1.20;99.90
73643;DHT22;61938;48.652;9.292;2023-03-11T03:09:36;1.20;99.90
73643;DHT22;61938;48.652;9.292;2023-03-11T03:12:02;1.20;99.90
73643;DHT22;61938;48.652;9.292;2023-03-11T03:14:28;1.20;99.90
73643;DHT22;61938;48.652;9.292;2023-03-11T03:16:54;1.10;99.90
73643;DHT22;61938;48.652;9.292;2023-03-11T03:19:20;1.00;99.90
73643;DHT22;61938;48.652;9.292;2023-03-11T03:21:45;1.00;99.90
73643;DHT22;61938;48.652;9.292;2023-03-11T03:24:11;0.90;99.90
73643;DHT22;61938;48.652;9.292;2023-03-11T03:26:36;0.80;99.90
73643;DHT22;61938;48.652;9.292;2023-03-11T03:29:04;0.80;99.90
73643;DHT22;61938;48.652;9.292;2023-03-11T03:31:30;0.80;99.90
73643;DHT22;61938;48.652;9.292;2023-03-11T03:33:58;0.70;99.90
73643;DHT22;61938;48.652;9.292;2023-03-11T03:36:23;0.60;99.90
73643;DHT22;61938;48.652;9.292;2023-03-11T03:38:53;0.60;99.90
73643;DHT22;61938;48.652;9.292;2023-03-11T03:41:19;0.60;99.90
73643;DHT22;61938;48.652;9.292;2023-03-11T03:43:44;0.60;99.90
73643;DHT22;61938;48.652;9.292;2023-03-11T03:46:10;0.50;99.90
73643;DHT22;61938;48.652;9.292;2023-03-11T03:48:35;0.40;99.90
73643;DHT22;61938;48.652;9.292;2023-03-11T03:51:03;0.30;99.90
73643;DHT22;61938;48.652;9.292;2023-03-11T03:53:29;0.30;99.90
73643;DHT22;61938;48.652;9.292;2023-03-11T03:55:55;0.30;99.90
73643;DHT22;61938;48.652;9.292;2023-03-11T03:58:20;0.30;99.90
73643;DHT22;61938;48.652;9.292;2023-03-11T04:00:46;0.20;99.90
73643;DHT22;61938;48.652;9.292;2023-03-11T04:03:11;0.80;99.90
73643;DHT22;61938;48.652;9.292;2023-03-11T04:05:37;2.50;99.90
73643;DHT22;61938;48.652;9.292;2023-03-11T04:08:03;0.20;99.90
73643;DHT22;61938;48.652;9.292;2023-03-11T04:10:28;0.10;99.90
73643;DHT22;61938;48.652;9.292;2023-03-11T04:12:54;0.10;99.90
73643;DHT22;61938;48.652;9.292;2023-03-11T04:15:19;0.10;99.90
73643;DHT22;61938;48.652;9.292;2023-03-11T04:17:45;0.00;99.90
73643;DHT22;61938;48.652;9.292;2023-03-11T04:20:11;0.00;99.90
73643;DHT22;61938;48.652;9.292;2023-03-11T04:22:36;0.00;99.90
73643;DHT22;61938;48.652;9.292;2023-03-11T04:25:02;0.00;99.90
73643;DHT22;61938;48.652;9.292;2023-03-11T04:27:28;0.00;99.90
73643;DHT22;61938;48.652;9.292;2023-03-11T04:29:54;0.00;99.90
73643;DHT22;61938;48.652;9.292;2023-03-11T04:32:19;-0.10;99.90
73643;DHT22;61938;48.652;9.292;2023-03-11T04:34:46;-0.10;99.90
73643;DHT22;61938;48.652;9.292;2023-03-11T04:37:12;-0.10;99.90
73643;DHT22;61938;48.652;9.292;2023-03-11T04:39:37;-0.20;99.90
73643;DHT22;61938;48.652;9.292;2023-03-11T04:42:03;-0.20;99.90
73643;DHT22;61938;48.652;9.292;2023-03-11T04:44:28;-0.20;99.90
73643;DHT22;61938;48.652;9.292;2023-03-11T04:46:54;-0.20;99.90
73643;DHT22;61938;48.652;9.292;2023-03-11T04:49:20;-0.20;99.90
73643;DHT22;61938;48.652;9.292;2023-03-11T04:51:45;-0.20;99.90
73643;DHT22;61938;48.652;9.292;2023-03-11T04:54:11;-0.30;99.90
73643;DHT22;61938;48.652;9.292;2023-03-11T04:56:36;-0.30;99.90
73643;DHT22;61938;48.652;9.292;2023-03-11T04:59:02;-0.30;99.90
73643;DHT22;61938;48.652;9.292;2023-03-11T05:01:27;-0.40;99.90
73643;DHT22;61938;48.652;9.292;2023-03-11T05:03:53;-0.40;99.90
73643;DHT22;61938;48.652;9.292;2023-03-11T05:06:18;-0.40;99.90
73643;DHT22;61938;48.652;9.292;2023-03-11T05:08:44;-0.40;99.90
73643;DHT22;61938;48.652;9.292;2023-03-11T05:11:09;-0.50;99.90
73643;DHT22;61938;48.652;9.292;2023-03-11T05:13:35;-0.50;99.90
73643;DHT22;61938;48.652;9.292;2023-03-11T05:16:00;-0.50;99.90
73643;DHT22;61938;48.652;9.292;2023-03-11T05:18:26;-0.50;99.90
73643;DHT22;61938;48.652;9.292;2023-03-11T05:20:51;-0.50;99.90
73643;DHT22;61938;48.652;9.292;2023-03-11T05:23:17;-0.50;99.90
73643;DHT22;61938;48.652;9.292;2023-03-11T05:25:43;-0.60;99.90
73643;DHT22;61938;48.652;9.292;2023-03-11T05:28:09;-0.50;99.90
73643;DHT22;61938;48.652;9.292;2023-03-11T05:30:34;-0.50;99.90
73643;DHT22;61938;48.652;9.292;2023-03-11T05:33:00;-0.60;99.90
73643;DHT22;61938;48.652;9.292;2023-03-11T05:35:25;-0.50;99.90
73643;DHT22;61938;48.652;9.292;2023-03-11T05:37:51;-0.60;99.90
73643;DHT22;61938;48.652;9.292;2023-03-11T05:40:17;-0.60;99.90
73643;DHT22;61938;48.652;9.292;2023-03-11T05:42:43;-0.50;99.90
73643;DHT22;61938;48.652;9.292;2023-03-11T05:45:09;-0.60;99.90
73643;DHT22;61938;48.652;9.292;2023-03-11T05:47:35;-0.50;99.90
73643;DHT22;61938;48.652;9.292;2023-03-11T05:50:01;-0.50;99.90
73643;DHT22;61938;48.652;9.292;2023-03-11T05:52:26;-0.50;99.90
73643;DHT22;61938;48.652;9.292;2023-03-11T05:54:52;-0.50;99.90
73643;DHT22;61938;48.652;9.292;2023-03-11T05:57:18;-0.50;99.90
73643;DHT22;61938;48.652;9.292;2023-03-11T05:59:44;-0.50;99.90
73643;DHT22;61938;48.652;9.292;2023-03-11T06:02:12;-0.50;99.90
73643;DHT22;61938;48.652;9.292;2023-03-11T06:04:37;-0.50;99.90
73643;DHT22;61938;48.652;9.292;2023-03-11T06:07:03;-0.50;99.90
73643;DHT22;61938;48.652;9.292;2023-03-11T06:09:29;-0.40;99.90
73643;DHT22;61938;48.652;9.292;2023-03-11T06:11:54;-0.50;99.90
73643;DHT22;61938;48.652;9.292;2023-03-11T06:14:20;-0.40;99.90
73643;DHT22;61938;48.652;9.292;2023-03-11T06:16:45;-0.40;99.90
73643;DHT22;61938;48.652;9.292;2023-03-11T06:19:11;-0.40;99.90
73643;DHT22;61938;48.652;9.292;2023-03-11T06:21:37;-0.40;99.90
73643;DHT22;61938;48.652;9.292;2023-03-11T06:24:02;-0.30;99.90
73643;DHT22;61938;48.652;9.292;2023-03-11T06:26:28;-0.10;99.90
73643;DHT22;61938;48.652;9.292;2023-03-11T06:28:53;0.10;99.90
73643;DHT22;61938;48.652;9.292;2023-03-11T06:31:24;0.20;99.90
73643;DHT22;61938;48.652;9.292;2023-03-11T06:33:50;0.40;99.90
73643;DHT22;61938;48.652;9.292;2023-03-11T06:36:17;0.50;99.90
73643;DHT22;61938;48.652;9.292;2023-03-11T06:38:43;0.60;99.90
73643;DHT22;61938;48.652;9.292;2023-03-11T06:41:11;0.60;99.90
73643;DHT22;61938;48.652;9.292;2023-03-11T06:43:37;0.60;99.90
73643;DHT22;61938;48.652;9.292;2023-03-11T06:46:16;0.70;99.90
73643;DHT22;61938;48.652;9.292;2023-03-11T06:48:42;0.70;99.90
73643;DHT22;61938;48.652;9.292;2023-03-11T06:51:09;0.80;99.90
73643;DHT22;61938;48.652;9.292;2023-03-11T06:53:34;0.80;99.90
73643;DHT22;61938;48.652;9.292;2023-03-11T06:56:04;0.80;99.90
73643;DHT22;61938;48.652;9.292;2023-03-11T06:58:31;0.90;99.90
73643;DHT22;61938;48.652;9.292;2023-03-11T07:01:01;1.00;99.90
73643;DHT22;61938;48.652;9.292;2023-03-11T07:03:28;1.20;99.90
73643;DHT22;61938;48.652;9.292;2023-03-11T07:05:53;1.40;99.90
73643;DHT22;61938;48.652;9.292;2023-03-11T07:08:19;1.50;99.90
73643;DHT22;61938;48.652;9.292;2023-03-11T07:10:44;1.70;99.90
73643;DHT22;61938;48.652;9.292;2023-03-11T07:13:10;1.80;99.90
73643;DHT22;61938;48.652;9.292;2023-03-11T07:15:36;1.90;99.90
73643;DHT22;61938;48.652;9.292;2023-03-11T07:18:01;2.10;99.90
73643;DHT22;61938;48.652;9.292;2023-03-11T07:20:27;2.10;99.90
73643;DHT22;61938;48.652;9.292;2023-03-11T07:22:52;2.20;99.90
73643;DHT22;61938;48.652;9.292;2023-03-11T07:25:18;2.10;99.90
73643;DHT22;61938;48.652;9.292;2023-03-11T07:27:43;2.20;99.90
73643;DHT22;61938;48.652;9.292;2023-03-11T07:30:09;2.00;99.90
73643;DHT22;61938;48.652;9.292;2023-03-11T07:32:35;2.00;99.90
73643;DHT22;61938;48.652;9.292;2023-03-11T07:35:00;2.20;99.90
73643;DHT22;61938;48.652;9.292;2023-03-11T07:37:26;2.20;99.90
73643;DHT22;61938;48.652;9.292;2023-03-11T07:39:52;2.20;99.90
73643;DHT22;61938;48.652;9.292;2023-03-11T07:42:17;2.20;99.90
73643;DHT22;61938;48.652;9.292;2023-03-11T07:44:42;2.40;99.90
73643;DHT22;61938;48.652;9.292;2023-03-11T07:47:08;2.60;99.90
73643;DHT22;61938;48.652;9.292;2023-03-11T07:49:34;2.90;99.90
73643;DHT22;61938;48.652;9.292;2023-03-11T07:52:00;3.40;99.90
73643;DHT22;61938;48.652;9.292;2023-03-11T07:54:25;3.40;99.90
73643;DHT22;61938;48.652;9.292;2023-03-11T07:56:51;3.60;99.90
73643;DHT22;61938;48.652;9.292;2023-03-11T07:59:16;3.60;99.90
73643;DHT22;61938;48.652;9.292;2023-03-11T08:01:42;3.60;99.90
73643;DHT22;61938;48.652;9.292;2023-03-11T08:04:12;3.90;99.90
73643;DHT22;61938;48.652;9.292;2023-03-11T08:06:40;4.10;99.90
73643;DHT22;61938;48.652;9.292;2023-03-11T08:09:07;4.40;99.90
73643;DHT22;61938;48.652;9.292;2023-03-11T08:11:33;4.20;99.90
73643;DHT22;61938;48.652;9.292;2023-03-11T08:13:59;4.30;99.90
73643;DHT22;61938;48.652;9.292;2023-03-11T08:16:25;4.10;99.90
73643;DHT22;61938;48.652;9.292;2023-03-11T08:18:51;4.30;99.90
73643;DHT22;61938;48.652;9.292;2023-03-11T08:21:22;4.30;99.90
73643;DHT22;61938;48.652;9.292;2023-03-11T08:23:49;4.50;99.90
73643;DHT22;61938;48.652;9.292;2023-03-11T08:26:17;4.80;99.90
73643;DHT22;61938;48.652;9.292;2023-03-11T08:28:43;4.60;99.90
73643;DHT22;61938;48.652;9.292;2023-03-11T08:31:13;4.80;99.90
73643;DHT22;61938;48.652;9.292;2023-03-11T08:33:39;4.90;99.90
73643;DHT22;61938;48.652;9.292;2023-03-11T08:36:05;5.40;99.90
73643;DHT22;61938;48.652;9.292;2023-03-11T08:38:31;5.20;99.90
73643;DHT22;61938;48.652;9.292;2023-03-11T08:40:56;5.10;99.90
73643;DHT22;61938;48.652;9.292;2023-03-11T08:43:22;5.10;99.90
73643;DHT22;61938;48.652;9.292;2023-03-11T08:45:47;5.20;99.90
73643;DHT22;61938;48.652;9.292;2023-03-11T08:48:13;5.20;99.90
73643;DHT22;61938;48.652;9.292;2023-03-11T08:50:40;5.30;99.90
73643;DHT22;61938;48.652;9.292;2023-03-11T08:53:06;5.10;99.90
73643;DHT22;61938;48.652;9.292;2023-03-11T08:55:33;5.00;99.90
73643;DHT22;61938;48.652;9.292;2023-03-11T08:57:58;4.80;99.90
73643;DHT22;61938;48.652;9.292;2023-03-11T09:00:24;4.80;99.90
73643;DHT22;61938;48.652;9.292;2023-03-11T09:02:51;4.30;99.90
73643;DHT22;61938;48.652;9.292;2023-03-11T09:05:17;4.50;99.90
73643;DHT22;61938;48.652;9.292;2023-03-11T09:07:43;4.90;99.90
73643;DHT22;61938;48.652;9.292;2023-03-11T09:10:12;5.30;99.90
73643;DHT22;61938;48.652;9.292;2023-03-11T09:12:38;5.40;99.90
73643;DHT22;61938;48.652;9.292;2023-03-11T09:15:04;5.50;99.90
73643;DHT22;61938;48.652;9.292;2023-03-11T09:17:30;5.70;99.90
73643;DHT22;61938;48.652;9.292;2023-03-11T09:19:56;6.10;99.90
73643;DHT22;61938;48.652;9.292;2023-03-11T09:22:21;6.50;99.90
73643;DHT22;61938;48.652;9.292;2023-03-11T09:24:47;6.60;99.90
73643;DHT22;61938;48.652;9.292;2023-03-11T09:27:12;6.70;99.90
73643;DHT22;61938;48.652;9.292;2023-03-11T09:29:39;6.50;99.90
73643;DHT22;61938;48.652;9.292;2023-03-11T09:32:05;6.00;99.90
73643;DHT22;61938;48.652;9.292;2023-03-11T09:34:31;5.60;99.90
73643;DHT22;61938;48.652;9.292;2023-03-11T09:36:56;5.40;99.90
73643;DHT22;61938;48.652;9.292;2023-03-11T09:39:21;5.30;99.90
73643;DHT22;61938;48.652;9.292;2023-03-11T09:41:56;5.00;99.90
73643;DHT22;61938;48.652;9.292;2023-03-11T09:44:36;5.00;99.90
73643;DHT22;61938;48.652;9.292;2023-03-11T09:52:32;6.50;99.90
73643;DHT22;61938;48.652;9.292;2023-03-11T09:55:02;5.80;99.90
73643;DHT22;61938;48.652;9.292;2023-03-11T09:57:31;5.40;99.90
73643;DHT22;61938;48.652;9.292;2023-03-11T09:59:59;5.30;99.90
73643;DHT22;61938;48.652;9.292;2023-03-11T10:02:26;5.20;99.90
73643;DHT22;61938;48.652;9.292;2023-03-11T10:05:19;5.30;99.90
73643;DHT22;61938;48.652;9.292;2023-03-11T10:07:57;5.00;99.90
73643;DHT22;61938;48.652;9.292;2023-03-11T10:10:27;5.00;99.90
73643;DHT22;61938;48.652;9.292;2023-03-11T10:13:35;4.80;99.90
73643;DHT22;61938;48.652;9.292;2023-03-11T10:16:29;4.60;99.90
73643;DHT22;61938;48.652;9.292;2023-03-11T10:19:59;4.80;99.90
73643;DHT22;61938;48.652;9.292;2023-03-11T10:22:16;4.70;99.90
73643;DHT22;61938;48.652;9.292;2023-03-11T10:25:09;4.60;99.90
73643;DHT22;61938;48.652;9.292;2023-03-11T10:30:40;4.50;99.90
73643;DHT22;61938;48.652;9.292;2023-03-11T10:33:25;5.20;99.90
73643;DHT22;61938;48.652;9.292;2023-03-11T10:35:57;5.70;99.90
73643;DHT22;61938;48.652;9.292;2023-03-11T10:38:36;5.60;99.90
73643;DHT22;61938;48.652;9.292;2023-03-11T10:41:35;5.50;99.90
73643;DHT22;61938;48.652;9.292;2023-03-11T10:44:09;6.00;99.90
73643;DHT22;61938;48.652;9.292;2023-03-11T10:46:36;6.80;99.90
73643;DHT22;61938;48.652;9.292;2023-03-11T10:49:01;7.50;99.90
73643;DHT22;61938;48.652;9.292;2023-03-11T10:51:35;7.60;99.90
73643;DHT22;61938;48.652;9.292;2023-03-11T10:54:02;7.60;99.90
73643;DHT22;61938;48.652;9.292;2023-03-11T10:56:35;7.20;99.90
73643;DHT22;61938;48.652;9.292;2023-03-11T10:59:02;6.90;99.90
73643;DHT22;61938;48.652;9.292;2023-03-11T11:01:29;6.40;99.90
73643;DHT22;61938;48.652;9.292;2023-03-11T11:03:57;6.10;99.90
73643;DHT22;61938;48.652;9.292;2023-03-11T11:06:33;5.90;99.90
73643;DHT22;61938;48.652;9.292;2023-03-11T11:09:18;5.70;99.90
73643;DHT22;61938;48.652;9.292;2023-03-11T11:12:11;5.80;99.90
73643;DHT22;61938;48.652;9.292;2023-03-11T11:14:51;5.80;99.90
73643;DHT22;61938;48.652;9.292;2023-03-11T11:17:29;6.00;99.90
73643;DHT22;61938;48.652;9.292;2023-03-11T11:19:56;5.90;99.90
73643;DHT22;61938;48.652;9.292;2023-03-11T11:22:24;5.70;99.90
73643;DHT22;61938;48.652;9.292;2023-03-11T11:24:52;5.60;99.90
73643;DHT22;61938;48.652;9.292;2023-03-11T11:27:21;5.40;99.90
73643;DHT22;61938;48.652;9.292;2023-03-11T11:30:01;5.80;99.90
73643;DHT22;61938;48.652;9.292;2023-03-11T11:32:27;6.10;99.90
73643;DHT22;61938;48.652;9.292;2023-03-11T11:34:59;6.40;99.90
73643;DHT22;61938;48.652;9.292;2023-03-11T11:37:27;6.40;99.90
73643;DHT22;61938;48.652;9.292;2023-03-11T11:40:06;6.50;99.90
73643;DHT22;61938;48.652;9.292;2023-03-11T11:42:45;6.70;99.90
73643;DHT22;61938;48.652;9.292;2023-03-11T11:45:15;6.80;99.90
73643;DHT22;61938;48.652;9.292;2023-03-11T11:47:47;7.00;99.90
73643;DHT22;61938;48.652;9.292;2023-03-11T11:50:24;7.40;99.90
73643;DHT22;61938;48.652;9.292;2023-03-11T11:52:55;7.70;99.90
73643;DHT22;61938;48.652;9.292;2023-03-11T11:55:25;7.90;99.90
73643;DHT22;61938;48.652;9.292;2023-03-11T11:57:51;7.90;99.90
73643;DHT22;61938;48.652;9.292;2023-03-11T12:00:25;7.90;99.90
73643;DHT22;61938;48.652;9.292;2023-03-11T12:03:14;8.20;99.90
73643;DHT22;61938;48.652;9.292;2023-03-11T12:06:00;8.10;99.90
73643;DHT22;61938;48.652;9.292;2023-03-11T12:11:17;7.60;98.70
73643;DHT22;61938;48.652;9.292;2023-03-11T12:14:02;7.90;99.90
73643;DHT22;61938;48.652;9.292;2023-03-11T12:22:23;8.50;99.80
73643;DHT22;61938;48.652;9.292;2023-03-11T12:27:33;8.80;99.90
73643;DHT22;61938;48.652;9.292;2023-03-11T12:30:16;8.80;99.00
73643;DHT22;61938;48.652;9.292;2023-03-11T12:32:50;9.20;99.60
73643;DHT22;61938;48.652;9.292;2023-03-11T12:35:19;8.90;93.90
73643;DHT22;61938;48.652;9.292;2023-03-11T12:37:45;8.60;98.50
73643;DHT22;61938;48.652;9.292;2023-03-11T12:43:24;8.20;95.10
73643;DHT22;61938;48.652;9.292;2023-03-11T12:45:51;8.00;99.90
73643;DHT22;61938;48.652;9.292;2023-03-11T12:48:41;8.40;96.50
73643;DHT22;61938;48.652;9.292;2023-03-11T12:54:34;8.50;97.40
73643;DHT22;61938;48.652;9.292;2023-03-11T12:57:35;9.00;98.90
73643;DHT22;61938;48.652;9.292;2023-03-11T13:03:05;9.50;96.70
73643;DHT22;61938;48.652;9.292;2023-03-11T13:08:14;9.30;97.20
73643;DHT22;61938;48.652;9.292;2023-03-11T13:13:31;9.20;94.70
73643;DHT22;61938;48.652;9.292;2023-03-11T13:18:38;9.00;98.50
73643;DHT22;61938;48.652;9.292;2023-03-11T13:21:04;9.20;97.90
73643;DHT22;61938;48.652;9.292;2023-03-11T13:23:49;9.30;95.60
73643;DHT22;61938;48.652;9.292;2023-03-11T13:26:28;9.10;96.70
73643;DHT22;61938;48.652;9.292;2023-03-11T13:29:08;8.90;94.30
73643;DHT22;61938;48.652;9.292;2023-03-11T13:34:25;8.60;93.60
73643;DHT22;61938;48.652;9.292;2023-03-11T13:37:02;8.90;95.20
73643;DHT22;61938;48.652;9.292;2023-03-11T13:39:52;8.90;95.70
73643;DHT22;61938;48.652;9.292;2023-03-11T13:42:48;9.10;98.90
73643;DHT22;61938;48.652;9.292;2023-03-11T13:45:30;9.00;94.00
73643;DHT22;61938;48.652;9.292;2023-03-11T13:48:46;8.90;94.60
73643;DHT22;61938;48.652;9.292;2023-03-11T13:50:50;8.90;93.10
73643;DHT22;61938;48.652;9.292;2023-03-11T13:53:24;9.20;95.70
73643;DHT22;61938;48.652;9.292;2023-03-11T13:55:53;9.20;93.00
73643;DHT22;61938;48.652;9.292;2023-03-11T13:58:23;9.10;94.90
73643;DHT22;61938;48.652;9.292;2023-03-11T14:00:58;8.80;92.70
73643;DHT22;61938;48.652;9.292;2023-03-11T14:03:26;9.00;92.60
73643;DHT22;61938;48.652;9.292;2023-03-11T14:06:13;8.90;94.00
73643;DHT22;61938;48.652;9.292;2023-03-11T14:08:39;8.90;93.80
73643;DHT22;61938;48.652;9.292;2023-03-11T14:13:52;8.70;90.80
73643;DHT22;61938;48.652;9.292;2023-03-11T14:16:36;8.10;85.00
73643;DHT22;61938;48.652;9.292;2023-03-11T14:19:17;7.90;92.40
73643;DHT22;61938;48.652;9.292;2023-03-11T14:21:47;7.90;92.20
73643;DHT22;61938;48.652;9.292;2023-03-11T14:24:17;7.80;94.50
73643;DHT22;61938;48.652;9.292;2023-03-11T14:26:43;7.80;93.10
73643;DHT22;61938;48.652;9.292;2023-03-11T14:29:14;7.80;93.70
73643;DHT22;61938;48.652;9.292;2023-03-11T14:31:42;7.70;94.60
73643;DHT22;61938;48.652;9.292;2023-03-11T14:34:19;7.60;93.40
73643;DHT22;61938;48.652;9.292;2023-03-11T14:36:49;7.70;94.30
73643;DHT22;61938;48.652;9.292;2023-03-11T14:39:32;7.50;90.60
73643;DHT22;61938;48.652;9.292;2023-03-11T14:42:00;7.70;91.40
73643;DHT22;61938;48.652;9.292;2023-03-11T14:44:28;7.50;88.10
73643;DHT22;61938;48.652;9.292;2023-03-11T14:47:02;7.20;90.70
73643;DHT22;61938;48.652;9.292;2023-03-11T14:49:29;7.10;90.30
73643;DHT22;61938;48.652;9.292;2023-03-11T14:52:02;6.90;91.30
73643;DHT22;61938;48.652;9.292;2023-03-11T14:54:32;7.10;94.90
73643;DHT22;61938;48.652;9.292;2023-03-11T14:57:23;7.20;90.10
73643;DHT22;61938;48.652;9.292;2023-03-11T14:59:52;7.00;91.80
73643;DHT22;61938;48.652;9.292;2023-03-11T15:02:27;6.90;91.90
73643;DHT22;61938;48.652;9.292;2023-03-11T15:04:54;6.80;90.40
73643;DHT22;61938;48.652;9.292;2023-03-11T15:07:20;6.70;91.30
73643;DHT22;61938;48.652;9.292;2023-03-11T15:09:46;6.90;94.00
73643;DHT22;61938;48.652;9.292;2023-03-11T15:12:32;7.20;92.60
73643;DHT22;61938;48.652;9.292;2023-03-11T15:14:58;7.10;92.80
73643;DHT22;61938;48.652;9.292;2023-03-11T15:17:25;7.10;94.70
73643;DHT22;61938;48.652;9.292;2023-03-11T15:19:53;6.90;93.30
73643;DHT22;61938;48.652;9.292;2023-03-11T15:22:34;7.00;94.20
73643;DHT22;61938;48.652;9.292;2023-03-11T15:25:03;7.10;94.00
73643;DHT22;61938;48.652;9.292;2023-03-11T15:27:37;7.00;91.40
73643;DHT22;61938;48.652;9.292;2023-03-11T15:30:26;7.00;92.70
73643;DHT22;61938;48.652;9.292;2023-03-11T15:32:51;6.90;93.30
73643;DHT22;61938;48.652;9.292;2023-03-11T15:35:25;6.90;93.90
73643;DHT22;61938;48.652;9.292;2023-03-11T15:38:22;7.00;96.00
73643;DHT22;61938;48.652;9.292;2023-03-11T15:40:51;7.10;94.30
73643;DHT22;61938;48.652;9.292;2023-03-11T15:43:25;7.00;94.60
73643;DHT22;61938;48.652;9.292;2023-03-11T15:45:52;6.90;94.90
73643;DHT22;61938;48.652;9.292;2023-03-11T15:48:19;6.80;94.50
73643;DHT22;61938;48.652;9.292;2023-03-11T15:50:51;6.70;95.20
73643;DHT22;61938;48.652;9.292;2023-03-11T15:53:17;6.70;95.40
73643;DHT22;61938;48.652;9.292;2023-03-11T15:55:43;6.50;96.10
73643;DHT22;61938;48.652;9.292;2023-03-11T15:58:11;6.50;96.50
73643;DHT22;61938;48.652;9.292;2023-03-11T16:00:44;6.50;97.00
73643;DHT22;61938;48.652;9.292;2023-03-11T16:03:10;6.50;97.40
73643;DHT22;61938;48.652;9.292;2023-03-11T16:05:35;6.50;97.00
73643;DHT22;61938;48.652;9.292;2023-03-11T16:08:01;6.40;97.70
73643;DHT22;61938;48.652;9.292;2023-03-11T16:10:26;6.30;97.80
73643;DHT22;61938;48.652;9.292;2023-03-11T16:12:53;6.20;97.90
73643;DHT22;61938;48.652;9.292;2023-03-11T16:15:34;6.10;98.60
73643;DHT22;61938;48.652;9.292;2023-03-11T16:18:03;6.10;99.40
73643;DHT22;61938;48.652;9.292;2023-03-11T16:20:43;6.10;99.30
73643;DHT22;61938;48.652;9.292;2023-03-11T16:23:20;6.10;99.20
73643;DHT22;61938;48.652;9.292;2023-03-11T16:25:47;6.00;99.40
73643;DHT22;61938;48.652;9.292;2023-03-11T16:28:14;5.90;99.20
73643;DHT22;61938;48.652;9.292;2023-03-11T16:30:40;5.70;99.90
73643;DHT22;61938;48.652;9.292;2023-03-11T16:33:06;5.70;99.90
73643;DHT22;61938;48.652;9.292;2023-03-11T16:35:32;5.70;99.90
73643;DHT22;61938;48.652;9.292;2023-03-11T16:37:58;5.60;99.90
73643;DHT22;61938;48.652;9.292;2023-03-11T16:40:25;5.50;99.90
73643;DHT22;61938;48.652;9.292;2023-03-11T16:43:04;5.50;99.90
73643;DHT22;61938;48.652;9.292;2023-03-11T16:45:30;5.50;99.90
73643;DHT22;61938;48.652;9.292;2023-03-11T16:47:56;5.40;99.90